Time;durP1;ratioP1;P1;durP2;ratioP2;P2;SDS_P1;SDS_P2;PMS_P1;PMS_P2;Temp;Humidity;BMP_temperature;BMP_pressure;BME280_temperature;BME280_humidity;BME280_pressure;Samples;Min_cycle;Max_cycle;Signal;HPM_P1;HPM_P2
2023/03/12 00:01:25;;;;;;;6.47;4.65;;;;;;;0.89;50.82;92989.66;5012752;28;20626;-77
2023/03/12 00:03:52;;;;;;;10.40;5.47;;;;;;;0.75;50.83;92992.09;5007976;28;20037;-78
2023/03/12 00:06:19;;;;;;;11.10;6.57;;;;;;;0.70;51.18;92982.44;5013125;28;20604;-77
2023/03/12 00:08:45;;;;;;;8.05;5.78;;;;;;;0.63;51.76;92978.59;5011252;28;20036;-77
2023/03/12 00:11:14;;;;;;;8.48;6.20;;;;;;;0.83;51.41;92998.59;5010690;28;20490;-77
2023/03/12 00:13:40;;;;;;;13.90;6.82;;;;;;;0.68;51.92;92987.19;5012230;28;20105;-77
2023/03/12 00:16:12;;;;;;;7.18;6.03;;;;;;;0.69;51.69;92998.44;5010637;28;20041;-77
2023/03/12 00:18:38;;;;;;;11.05;5.90;;;;;;;0.56;51.44;92944.06;5012618;28;20529;-77
2023/03/12 00:21:04;;;;;;;10.13;5.78;;;;;;;0.81;51.25;93004.09;5009757;28;20040;-77
2023/03/12 00:23:29;;;;;;;10.25;6.03;;;;;;;0.72;51.57;92998.66;5014894;28;20033;-77
2023/03/12 00:26:06;;;;;;;9.00;5.43;;;;;;;0.83;51.31;93003.84;4999547;28;20542;-77
2023/03/12 00:28:31;;;;;;;8.02;5.50;;;;;;;0.97;50.19;92994.31;4998677;28;20030;-78
2023/03/12 00:30:57;;;;;;;9.43;6.40;;;;;;;0.95;49.80;93018.13;5011056;28;20091;-77
2023/03/12 00:33:25;;;;;;;6.75;5.43;;;;;;;0.94;50.07;93018.41;5013207;28;20042;-77
2023/03/12 00:35:51;;;;;;;8.35;6.03;;;;;;;0.59;50.37;92977.56;5012102;28;20032;-77
2023/03/12 00:38:17;;;;;;;7.80;5.95;;;;;;;0.89;50.63;93021.09;4995253;28;20021;-77
2023/03/12 00:40:42;;;;;;;8.50;6.18;;;;;;;1.01;49.68;93021.50;5008055;28;20044;-77
2023/03/12 00:43:08;;;;;;;7.00;6.18;;;;;;;1.04;49.47;93002.63;5011316;28;20425;-79
2023/03/12 00:45:33;;;;;;;7.47;6.55;;;;;;;1.01;49.09;93003.19;5010178;28;20034;-77
2023/03/12 00:47:59;;;;;;;8.32;5.63;;;;;;;0.92;49.12;92999.59;5009453;28;20482;-77
2023/03/12 00:50:24;;;;;;;25.17;14.80;;;;;;;0.85;49.77;92999.09;5012811;28;20108;-77
2023/03/12 00:52:50;;;;;;;80.60;46.63;;;;;;;0.77;49.17;92974.28;5010746;28;20576;-77
2023/03/12 00:55:15;;;;;;;48.97;29.95;;;;;;;1.10;48.99;93009.41;5011951;28;20041;-76
2023/03/12 00:57:40;;;;;;;47.15;28.00;;;;;;;1.02;49.13;93008.16;5013479;28;20116;-77
2023/03/12 01:00:10;;;;;;;198.63;92.88;;;;;;;0.54;49.40;92969.75;5009192;28;20030;-77
2023/03/12 01:02:39;;;;;;;117.53;57.38;;;;;;;0.57;50.96;93027.53;5010216;28;20455;-78
2023/03/12 01:05:06;;;;;;;50.97;25.15;;;;;;;0.54;50.83;92991.47;5011587;28;20029;-77
2023/03/12 01:07:32;;;;;;;103.15;47.10;;;;;;;0.68;50.79;93023.81;5008591;28;20037;-79
2023/03/12 01:09:57;;;;;;;71.45;41.65;;;;;;;0.49;51.19;93015.03;5009093;28;20132;-77
2023/03/12 01:12:23;;;;;;;14.82;11.85;;;;;;;0.62;51.39;93031.97;4998670;28;20030;-78
2023/03/12 01:14:48;;;;;;;50.42;28.48;;;;;;;0.63;51.63;93036.16;5009255;28;20026;-77
2023/03/12 01:17:14;;;;;;;100.32;46.63;;;;;;;0.35;51.92;93037.56;5008782;28;20083;-77
2023/03/12 01:19:39;;;;;;;44.72;27.33;;;;;;;0.11;52.36;93018.31;5009837;28;20480;-77
2023/03/12 01:22:04;;;;;;;45.20;26.77;;;;;;;0.27;52.80;93017.22;4992393;28;20128;-77
2023/03/12 01:24:30;;;;;;;31.98;19.38;;;;;;;0.34;52.79;93030.78;5008712;28;20513;-77
2023/03/12 01:26:55;;;;;;;36.67;25.20;;;;;;;0.46;52.83;93046.94;5006595;28;20048;-77
2023/03/12 01:29:21;;;;;;;67.45;41.53;;;;;;;0.34;52.69;93002.03;5004181;28;20080;-77
2023/03/12 01:31:46;;;;;;;46.00;29.77;;;;;;;0.70;52.01;93037.41;5010638;28;20033;-78
2023/03/12 01:34:11;;;;;;;12.63;8.77;;;;;;;0.67;51.58;93008.38;5008398;28;20682;-77
2023/03/12 01:36:37;;;;;;;7.20;6.47;;;;;;;0.78;51.65;93023.75;5011123;28;20146;-77
2023/03/12 01:39:03;;;;;;;6.32;5.78;;;;;;;0.83;50.65;93025.56;5011139;28;20822;-77
2023/03/12 01:41:31;;;;;;;8.85;6.20;;;;;;;1.03;50.49;93035.91;5008894;28;20030;-78
2023/03/12 01:43:57;;;;;;;6.93;6.18;;;;;;;0.73;50.73;93005.47;5007822;28;20510;-77
2023/03/12 01:46:37;;;;;;;8.32;5.55;;;;;;;0.75;50.75;92995.50;5009598;28;20038;-77
2023/03/12 01:49:23;;;;;;;7.68;5.38;;;;;;;1.09;50.40;93034.00;5009316;28;20037;-77
2023/03/12 01:52:09;;;;;;;7.57;5.90;;;;;;;1.12;49.35;93029.03;5009894;28;20172;-78
2023/03/12 01:54:41;;;;;;;6.15;5.53;;;;;;;0.74;49.95;92990.56;4991032;28;20513;-78
2023/03/12 01:57:36;;;;;;;6.00;5.00;;;;;;;0.97;50.14;93036.22;4989981;28;20145;-77
2023/03/12 02:00:18;;;;;;;7.40;6.15;;;;;;;0.96;50.44;93040.66;5007257;28;20498;-77
2023/03/12 02:02:44;;;;;;;7.40;5.82;;;;;;;1.09;49.00;93026.16;5007608;28;20153;-77
2023/03/12 02:05:34;;;;;;;42.53;22.48;;;;;;;1.41;47.70;93036.94;5011054;28;20021;-76
2023/03/12 02:08:00;;;;;;;80.00;40.58;;;;;;;0.92;47.18;93012.69;5010303;28;20051;-78
2023/03/12 02:10:26;;;;;;;54.60;31.67;;;;;;;1.03;47.84;93035.13;5007349;28;20616;-78
2023/03/12 02:12:52;;;;;;;181.57;90.35;;;;;;;1.00;47.53;93015.50;5008245;28;20060;-77
2023/03/12 02:15:18;;;;;;;57.25;35.67;;;;;;;1.21;46.97;93022.16;5010526;28;20025;-78
2023/03/12 02:17:43;;;;;;;26.42;17.40;;;;;;;1.38;47.18;93040.06;5007987;28;20104;-77
2023/03/12 02:20:15;;;;;;;19.83;16.50;;;;;;;1.40;47.22;93034.56;5008529;28;20096;-78
2023/03/12 02:22:43;;;;;;;28.90;18.70;;;;;;;1.42;47.34;93027.22;5009032;28;20133;-77
2023/03/12 02:25:25;;;;;;;23.23;17.05;;;;;;;1.22;47.43;93033.41;5006661;28;20116;-77
2023/03/12 02:27:51;;;;;;;17.80;13.65;;;;;;;0.70;47.90;93008.63;5011617;28;20033;-77
2023/03/12 02:30:18;;;;;;;9.10;7.40;;;;;;;1.07;48.13;93036.13;4996681;28;20037;-77
2023/03/12 02:32:45;;;;;;;5.57;4.65;;;;;;;0.80;47.53;93026.09;5007706;28;20036;-78
2023/03/12 02:35:12;;;;;;;7.18;4.45;;;;;;;0.88;48.00;93022.13;5008835;28;20099;-77
2023/03/12 02:37:52;;;;;;;4.93;4.53;;;;;;;1.18;47.68;93041.00;5009937;28;20033;-77
2023/03/12 02:40:23;;;;;;;5.65;4.30;;;;;;;0.98;46.96;93011.59;5008928;28;20567;-77
2023/03/12 02:42:48;;;;;;;6.72;4.25;;;;;;;1.07;46.56;93051.84;5008459;28;20045;-78
2023/03/12 02:45:14;;;;;;;7.50;3.92;;;;;;;1.01;47.23;93039.84;4996483;28;20421;-78
2023/03/12 02:47:39;;;;;;;4.15;3.72;;;;;;;1.19;46.98;93060.13;4990264;28;20127;-77
2023/03/12 02:50:05;;;;;;;3.40;3.10;;;;;;;1.37;46.28;93056.88;4999258;28;20025;-77
2023/03/12 02:52:34;;;;;;;5.40;3.95;;;;;;;1.32;46.87;93074.47;5005590;28;20067;-76
2023/03/12 02:55:00;;;;;;;4.10;3.70;;;;;;;1.50;46.66;93077.19;4993691;28;20087;-77
2023/03/12 02:57:25;;;;;;;4.75;3.50;;;;;;;1.52;46.42;93053.34;5007426;28;20184;-77
2023/03/12 02:59:50;;;;;;;4.93;3.70;;;;;;;1.65;46.43;93063.19;5007669;28;20510;-78
2023/03/12 03:02:16;;;;;;;5.82;3.75;;;;;;;1.65;45.46;93074.47;5011409;28;20591;-78
2023/03/12 03:04:41;;;;;;;3.08;2.75;;;;;;;1.45;45.69;93076.44;5007267;28;20515;-77
2023/03/12 03:07:07;;;;;;;3.78;3.28;;;;;;;1.32;45.81;93082.31;5008267;28;20034;-77
2023/03/12 03:09:32;;;;;;;5.28;3.25;;;;;;;1.12;44.61;93051.81;5009439;28;20505;-76
2023/03/12 03:11:57;;;;;;;30.08;21.92;;;;;;;0.92;44.89;93028.38;5008944;28;20038;-76
2023/03/12 03:14:23;;;;;;;40.33;30.15;;;;;;;0.77;44.44;93029.25;5008785;28;20021;-77
2023/03/12 03:16:49;;;;;;;4.05;3.08;;;;;;;1.02;44.76;93059.75;5008082;28;20092;-77
2023/03/12 03:19:14;;;;;;;27.75;22.50;;;;;;;1.00;44.47;93064.44;4992388;28;20501;-76
2023/03/12 03:21:40;;;;;;;20.58;15.90;;;;;;;0.94;44.40;93048.00;5008550;28;20034;-77
2023/03/12 03:24:05;;;;;;;11.65;10.45;;;;;;;0.86;44.17;93055.63;5009503;28;20041;-78
2023/03/12 03:26:31;;;;;;;6.32;2.67;;;;;;;0.84;43.68;93057.75;5008123;28;20033;-77
2023/03/12 03:28:56;;;;;;;3.05;2.20;;;;;;;0.77;43.23;93060.66;4996362;28;20171;-76
2023/03/12 03:31:22;;;;;;;3.42;2.10;;;;;;;0.63;43.44;93036.94;4994202;28;20026;-77
2023/03/12 03:33:48;;;;;;;3.40;2.53;;;;;;;0.66;43.62;93020.69;5010166;28;20056;-77
2023/03/12 03:36:14;;;;;;;3.63;3.17;;;;;;;0.67;43.42;93040.56;5000545;28;20037;-76
2023/03/12 03:38:40;;;;;;;2.83;2.45;;;;;;;0.37;43.22;93017.16;5012092;28;20413;-77
2023/03/12 03:41:06;;;;;;;2.25;1.88;;;;;;;0.30;43.94;93048.06;4995100;28;20029;-76
2023/03/12 03:43:31;;;;;;;2.00;1.80;;;;;;;0.51;42.55;93073.09;5011258;28;20083;-77
2023/03/12 03:46:02;;;;;;;2.63;2.35;;;;;;;0.40;43.35;93071.56;5009996;28;20042;-78
2023/03/12 03:48:28;;;;;;;2.20;1.80;;;;;;;0.51;43.25;93088.78;5013007;28;20506;-78
2023/03/12 03:50:54;;;;;;;4.07;3.67;;;;;;;0.59;43.74;93088.25;5011468;28;20035;-77
2023/03/12 03:53:20;;;;;;;3.80;2.03;;;;;;;0.41;43.57;93073.13;5000937;28;20686;-76
2023/03/12 03:55:45;;;;;;;3.60;2.50;;;;;;;0.40;43.40;93076.03;4993395;28;20071;-76
2023/03/12 03:58:11;;;;;;;3.20;2.08;;;;;;;0.42;43.28;93093.00;4992595;28;20053;-76
2023/03/12 04:00:37;;;;;;;2.75;2.30;;;;;;;0.38;43.63;93067.66;4994006;28;20033;-77
2023/03/12 04:03:02;;;;;;;4.78;2.63;;;;;;;0.08;44.75;93071.16;5011042;28;20134;-77
2023/03/12 04:05:28;;;;;;;3.28;2.60;;;;;;;0.00;44.59;93085.56;5007999;28;20488;-77
2023/03/12 04:07:54;;;;;;;3.92;2.70;;;;;;;-0.14;45.77;93106.22;4997011;28;20033;-77
2023/03/12 04:10:21;;;;;;;3.20;2.28;;;;;;;-0.17;45.61;93117.19;5010241;28;20084;-78
2023/03/12 04:12:47;;;;;;;3.00;2.40;;;;;;;-0.30;45.50;93081.16;5009903;28;20037;-76
2023/03/12 04:15:13;;;;;;;2.63;2.42;;;;;;;-0.45;45.29;93125.59;5009606;28;20569;-76
2023/03/12 04:17:38;;;;;;;2.97;2.67;;;;;;;-0.46;45.29;93123.22;5010448;28;20032;-77
2023/03/12 04:20:06;;;;;;;2.63;1.88;;;;;;;-0.60;45.13;93104.69;4998844;28;20476;-76
2023/03/12 04:22:32;;;;;;;2.47;1.88;;;;;;;-0.31;44.55;93137.06;5012332;28;20022;-78
2023/03/12 04:24:57;;;;;;;2.20;2.00;;;;;;;-0.26;44.57;93150.13;4998416;28;20053;-76
2023/03/12 04:27:23;;;;;;;2.65;2.45;;;;;;;-0.18;44.11;93139.16;4991638;28;20046;-76
2023/03/12 04:29:48;;;;;;;3.47;2.03;;;;;;;-0.14;43.89;93126.38;4991921;28;20032;-76
2023/03/12 04:32:13;;;;;;;2.35;2.15;;;;;;;-0.19;43.02;93118.53;4974977;28;20030;-78
2023/03/12 04:34:39;;;;;;;2.70;2.20;;;;;;;-0.12;43.85;93156.41;4991585;28;20030;-76
2023/03/12 04:37:04;;;;;;;2.70;2.50;;;;;;;-0.14;43.78;93158.47;4992822;28;20049;-76
2023/03/12 04:39:30;;;;;;;2.90;2.00;;;;;;;-0.18;44.16;93144.38;4977102;28;20527;-76
2023/03/12 04:41:55;;;;;;;2.50;2.30;;;;;;;-0.19;43.96;93132.34;4980128;28;20535;-76
2023/03/12 04:44:20;;;;;;;2.60;2.00;;;;;;;-0.01;43.57;93159.78;4992321;28;20042;-77
2023/03/12 04:46:46;;;;;;;3.17;2.65;;;;;;;0.06;43.29;93162.13;4990600;28;20112;-77
2023/03/12 04:49:11;;;;;;;2.72;1.92;;;;;;;-0.00;42.70;93168.44;4990059;28;20042;-76
2023/03/12 04:51:36;;;;;;;2.58;2.38;;;;;;;-0.22;42.94;93143.34;4990933;28;20038;-77
2023/03/12 04:54:02;;;;;;;5.10;2.22;;;;;;;-0.12;43.31;93169.47;4989753;28;20056;-77
2023/03/12 04:56:27;;;;;;;2.65;2.10;;;;;;;-0.17;42.65;93179.94;4992048;28;20026;-77
2023/03/12 04:58:53;;;;;;;2.05;1.85;;;;;;;-0.29;42.42;93150.69;4988394;28;20038;-77
2023/03/12 05:01:23;;;;;;;37.88;19.08;;;;;;;-0.27;41.49;93155.63;4992505;28;20041;-77
2023/03/12 05:03:49;;;;;;;9.15;6.90;;;;;;;-0.03;40.93;93171.53;4979223;28;20398;-76
2023/03/12 05:06:14;;;;;;;2.58;2.38;;;;;;;0.07;40.45;93174.16;4992450;28;20034;-77
2023/03/12 05:08:40;;;;;;;3.50;2.92;;;;;;;-0.01;41.20;93161.63;4991025;28;20026;-78
2023/03/12 05:11:06;;;;;;;2.67;2.35;;;;;;;0.03;40.57;93162.66;4990493;28;20502;-77
2023/03/12 05:13:31;;;;;;;6.70;4.50;;;;;;;-0.19;40.76;93166.31;4992740;28;20029;-77
2023/03/12 05:15:56;;;;;;;19.00;9.60;;;;;;;-0.10;40.94;93175.22;4988943;28;20096;-78
2023/03/12 05:18:22;;;;;;;6.32;4.70;;;;;;;-0.08;41.34;93188.03;4990628;28;20049;-77
2023/03/12 05:21:05;;;;;;;18.17;9.35;;;;;;;0.01;41.42;93183.06;4988578;28;20073;-77
2023/03/12 05:23:31;;;;;;;38.13;20.58;;;;;;;-0.05;41.55;93186.72;4990026;28;20577;-76
2023/03/12 05:25:56;;;;;;;3.10;2.88;;;;;;;-0.21;42.18;93191.94;5010370;28;20496;-76
2023/03/12 05:28:26;;;;;;;4.00;2.63;;;;;;;-0.33;42.41;93157.44;5006963;28;20058;-76
2023/03/12 05:30:59;;;;;;;4.90;4.30;;;;;;;0.06;41.61;93206.56;4993328;28;20397;-76
2023/03/12 05:33:26;;;;;;;3.90;2.80;;;;;;;-0.05;42.24;93211.03;4990717;28;20498;-77
2023/03/12 05:35:52;;;;;;;4.50;2.85;;;;;;;-0.04;42.73;93204.75;5009913;28;20489;-77
2023/03/12 05:38:18;;;;;;;5.38;3.28;;;;;;;0.14;41.91;93222.53;4999707;28;20013;-76
2023/03/12 05:40:52;;;;;;;2.90;2.53;;;;;;;0.31;41.74;93222.25;5009960;28;20038;-76
2023/03/12 05:43:17;;;;;;;7.22;6.22;;;;;;;0.44;41.43;93224.34;4991020;28;20033;-76
2023/03/12 05:45:43;;;;;;;2.30;2.10;;;;;;;0.21;41.31;93201.31;5007135;28;20165;-76
2023/03/12 05:48:08;;;;;;;2.45;2.25;;;;;;;0.61;41.49;93226.66;5008666;28;20072;-75
2023/03/12 05:50:34;;;;;;;2.05;1.92;;;;;;;0.39;41.44;93195.56;5009759;28;20033;-76
2023/03/12 05:52:59;;;;;;;3.03;2.53;;;;;;;0.38;41.68;93208.91;5009068;28;20809;-76
2023/03/12 05:55:24;;;;;;;2.58;2.05;;;;;;;0.34;42.11;93216.50;5005849;28;20052;-76
2023/03/12 05:57:51;;;;;;;6.13;2.53;;;;;;;0.45;41.69;93223.25;5010119;28;20522;-76
2023/03/12 06:00:16;;;;;;;2.10;1.90;;;;;;;0.42;41.56;93213.34;5009293;28;20038;-78
2023/03/12 06:02:42;;;;;;;2.03;1.70;;;;;;;0.53;41.89;93227.97;4989960;28;20028;-77
2023/03/12 06:05:09;;;;;;;4.82;2.28;;;;;;;0.87;42.15;93256.16;4999164;28;20049;-76
2023/03/12 06:07:35;;;;;;;2.78;2.50;;;;;;;0.93;42.22;93236.78;5008423;28;20041;-76
2023/03/12 06:10:00;;;;;;;3.42;2.08;;;;;;;1.21;41.95;93250.03;5006748;28;20042;-75
2023/03/12 06:12:26;;;;;;;5.95;1.90;;;;;;;1.17;41.41;93224.66;5006856;28;20519;-76
2023/03/12 06:14:51;;;;;;;4.07;2.28;;;;;;;1.47;41.06;93253.28;5009423;28;20033;-79
2023/03/12 06:17:16;;;;;;;3.30;2.50;;;;;;;1.32;41.51;93248.16;5009686;28;20603;-78
2023/03/12 06:19:42;;;;;;;2.85;2.28;;;;;;;1.60;42.16;93247.47;5008613;28;20038;-76
2023/03/12 06:22:08;;;;;;;23.88;14.55;;;;;;;1.61;40.59;93241.19;5001782;28;20079;-75
2023/03/12 06:24:33;;;;;;;8.85;8.00;;;;;;;1.78;40.29;93250.50;5000678;28;20056;-75
2023/03/12 06:26:59;;;;;;;12.20;7.35;;;;;;;2.04;39.67;93254.56;4973243;28;20461;-78
2023/03/12 06:29:24;;;;;;;3.92;3.60;;;;;;;2.22;39.49;93276.72;4991103;28;20454;-78
2023/03/12 06:31:51;;;;;;;5.07;2.80;;;;;;;2.19;40.24;93282.53;4988912;28;20050;-76
2023/03/12 06:34:16;;;;;;;4.35;2.83;;;;;;;2.48;41.42;93292.03;4987085;28;20220;-78
2023/03/12 06:36:42;;;;;;;3.25;2.95;;;;;;;2.20;39.83;93278.88;4988236;28;20030;-78
2023/03/12 06:39:08;;;;;;;2.70;2.45;;;;;;;2.37;39.92;93295.00;4989420;28;20125;-78
2023/03/12 06:41:34;;;;;;;3.08;2.20;;;;;;;2.35;39.90;93303.13;4990721;28;20053;-78
2023/03/12 06:44:04;;;;;;;2.38;2.17;;;;;;;2.50;40.64;93295.13;4990699;28;20121;-78
2023/03/12 06:46:30;;;;;;;3.33;2.55;;;;;;;2.55;39.51;93286.44;4989642;28;20037;-78
2023/03/12 06:48:56;;;;;;;2.75;2.30;;;;;;;2.32;39.25;93271.41;4989774;28;20037;-78
2023/03/12 06:51:21;;;;;;;2.72;2.22;;;;;;;2.30;39.28;93284.81;4991502;28;20570;-79
2023/03/12 06:53:46;;;;;;;3.03;2.40;;;;;;;2.43;39.23;93288.66;4987308;28;20037;-78
2023/03/12 06:56:12;;;;;;;12.50;10.25;;;;;;;0.99;39.20;93133.56;4987898;28;20475;-77
2023/03/12 06:58:38;;;;;;;56.75;32.90;;;;;;;1.97;40.24;93296.06;4988266;28;20040;-79
2023/03/12 07:01:04;;;;;;;8.27;4.93;;;;;;;2.29;40.74;93325.25;4988482;28;20038;-76
2023/03/12 07:03:29;;;;;;;4.50;3.50;;;;;;;2.31;40.31;93332.81;4973120;28;20084;-77
2023/03/12 07:05:56;;;;;;;5.32;3.33;;;;;;;2.24;41.67;93329.72;4987462;28;20524;-78
2023/03/12 07:08:22;;;;;;;4.72;2.88;;;;;;;2.02;41.08;93327.50;4974120;28;20078;-78
2023/03/12 07:10:47;;;;;;;4.43;2.55;;;;;;;2.06;40.75;93315.41;4987758;28;20133;-78
2023/03/12 07:13:13;;;;;;;3.78;3.05;;;;;;;2.23;41.09;93336.81;4988984;28;20494;-79
2023/03/12 07:15:39;;;;;;;6.20;3.40;;;;;;;1.90;43.71;93327.84;4988643;28;20031;-78
2023/03/12 07:18:10;;;;;;;6.47;3.50;;;;;;;1.81;44.86;93354.88;4989464;28;20458;-79
2023/03/12 07:20:37;;;;;;;6.68;6.05;;;;;;;1.94;44.80;93341.19;4988563;28;20038;-78
2023/03/12 07:23:03;;;;;;;4.22;3.83;;;;;;;1.98;44.75;93334.34;4987862;28;20038;-78
2023/03/12 07:25:28;;;;;;;3.40;3.00;;;;;;;1.75;45.38;93345.44;5004812;28;20565;-78
2023/03/12 07:27:54;;;;;;;18.88;4.20;;;;;;;1.98;45.55;93343.00;5007357;28;20041;-76
2023/03/12 07:30:19;;;;;;;4.53;3.35;;;;;;;2.16;45.24;93341.56;5006890;28;20037;-78
2023/03/12 07:32:45;;;;;;;3.28;2.97;;;;;;;2.07;44.40;93354.47;5009005;28;20080;-78
2023/03/12 07:35:10;;;;;;;3.50;2.83;;;;;;;1.87;45.02;93356.41;4996494;28;20025;-75
2023/03/12 07:37:35;;;;;;;5.75;3.08;;;;;;;1.86;45.69;93354.84;4992003;28;20502;-79
2023/03/12 07:40:01;;;;;;;3.60;2.90;;;;;;;1.85;45.21;93363.75;5007892;28;20049;-78
2023/03/12 07:42:26;;;;;;;4.18;2.90;;;;;;;1.63;45.04;93328.19;5009117;28;20108;-76
2023/03/12 07:44:52;;;;;;;3.25;2.63;;;;;;;1.67;45.16;93362.50;5006886;28;20481;-76
2023/03/12 07:47:17;;;;;;;8.98;2.83;;;;;;;1.58;45.36;93372.75;4988682;28;20124;-78
2023/03/12 07:49:42;;;;;;;3.80;3.03;;;;;;;1.59;43.51;93374.34;5006460;28;20041;-78
2023/03/12 07:52:10;;;;;;;2.95;2.53;;;;;;;1.66;43.81;93361.75;4991763;28;20038;-76
2023/03/12 07:54:36;;;;;;;4.60;3.65;;;;;;;2.03;43.46;93381.53;5007512;28;20045;-77
2023/03/12 07:57:02;;;;;;;2.55;2.33;;;;;;;1.89;42.23;93359.56;5006967;28;20037;-78
2023/03/12 07:59:28;;;;;;;2.88;2.60;;;;;;;1.81;43.47;93362.72;5008076;28;20022;-78
2023/03/12 08:01:53;;;;;;;3.67;3.03;;;;;;;1.74;43.41;93375.34;5005762;28;20596;-76
2023/03/12 08:04:19;;;;;;;2.83;2.33;;;;;;;1.74;43.77;93394.47;4989553;28;20026;-78
2023/03/12 08:06:44;;;;;;;4.43;3.20;;;;;;;1.68;43.88;93385.06;5007207;28;20108;-77
2023/03/12 08:09:10;;;;;;;3.47;3.17;;;;;;;1.50;43.67;93375.94;5008873;28;20352;-77
2023/03/12 08:11:36;;;;;;;3.38;2.78;;;;;;;1.50;42.56;93375.94;5006953;28;20045;-76
2023/03/12 08:14:04;;;;;;;4.03;3.67;;;;;;;1.63;43.17;93367.50;5008149;28;20038;-77
2023/03/12 08:16:29;;;;;;;4.70;2.92;;;;;;;1.59;42.37;93397.94;5007681;28;20040;-76
2023/03/12 08:18:54;;;;;;;4.05;3.08;;;;;;;1.36;41.87;93411.63;5014601;28;20045;-76
2023/03/12 08:21:20;;;;;;;2.58;2.30;;;;;;;1.31;41.21;93401.16;5009348;28;20789;-77
2023/03/12 08:23:45;;;;;;;2.95;2.50;;;;;;;1.22;41.09;93405.38;5012515;28;20477;-76
2023/03/12 08:26:11;;;;;;;2.78;2.58;;;;;;;1.28;41.86;93425.25;5009266;28;20030;-76
2023/03/12 08:28:36;;;;;;;3.10;2.83;;;;;;;1.37;42.20;93436.78;5009492;28;20044;-76
2023/03/12 08:31:02;;;;;;;3.55;2.90;;;;;;;1.31;42.01;93421.31;5010689;28;20125;-76
2023/03/12 08:33:28;;;;;;;3.75;2.55;;;;;;;1.46;42.76;93422.09;4992141;28;20046;-77
2023/03/12 08:35:53;;;;;;;3.88;2.60;;;;;;;1.49;42.06;93411.06;4993114;28;20497;-77
2023/03/12 08:38:19;;;;;;;4.90;3.47;;;;;;;1.84;42.51;93419.88;5011569;28;20453;-76
2023/03/12 08:40:44;;;;;;;6.28;4.35;;;;;;;1.89;43.19;93425.13;5012473;28;20426;-77
2023/03/12 08:43:10;;;;;;;3.63;2.97;;;;;;;1.82;43.54;93414.09;5009585;28;20076;-77
2023/03/12 08:45:36;;;;;;;3.10;2.80;;;;;;;1.83;41.54;93431.41;5011503;28;20061;-76
2023/03/12 08:48:05;;;;;;;6.20;3.25;;;;;;;2.00;42.18;93463.38;5010608;28;20365;-77
2023/03/12 08:50:32;;;;;;;3.63;3.10;;;;;;;1.75;41.97;93463.44;5011844;28;20030;-76
2023/03/12 08:52:58;;;;;;;3.60;2.75;;;;;;;1.73;41.75;93458.44;5011552;28;20041;-76
2023/03/12 08:55:26;;;;;;;2.70;2.33;;;;;;;1.84;42.13;93459.19;5011103;28;20037;-75
2023/03/12 08:57:54;;;;;;;4.22;2.72;;;;;;;1.98;41.77;93455.00;4992973;28;20131;-77
2023/03/12 09:00:19;;;;;;;5.03;3.10;;;;;;;1.96;41.32;93446.63;5010086;28;20041;-75
2023/03/12 09:02:45;;;;;;;3.42;2.97;;;;;;;1.94;40.40;93465.22;5009526;28;20244;-77
2023/03/12 09:05:11;;;;;;;5.60;2.92;;;;;;;1.59;40.92;93452.97;5011456;28;20073;-76
2023/03/12 09:07:37;;;;;;;3.03;2.83;;;;;;;1.74;42.80;93453.97;5009646;28;20124;-77
2023/03/12 09:10:03;;;;;;;3.13;2.50;;;;;;;1.79;40.36;93446.09;5011451;28;20117;-77
2023/03/12 09:12:29;;;;;;;4.00;2.58;;;;;;;1.95;41.55;93447.66;5006958;28;20577;-76
2023/03/12 09:14:54;;;;;;;4.15;3.25;;;;;;;2.04;42.06;93459.16;5012011;28;20030;-77
2023/03/12 09:17:19;;;;;;;4.43;3.17;;;;;;;2.04;41.46;93453.91;5010299;28;20029;-77
2023/03/12 09:19:45;;;;;;;2.70;2.50;;;;;;;1.89;40.73;93419.88;5009569;28;20125;-76
2023/03/12 09:22:11;;;;;;;2.60;2.40;;;;;;;1.90;41.42;93440.59;5009539;28;20064;-75
2023/03/12 09:24:36;;;;;;;4.38;2.63;;;;;;;2.14;41.25;93451.25;5010791;28;20072;-76
2023/03/12 09:27:03;;;;;;;2.65;2.45;;;;;;;2.17;41.12;93442.06;5009000;28;20409;-76
2023/03/12 09:29:29;;;;;;;3.40;2.80;;;;;;;2.10;41.19;93421.38;5010476;28;20496;-77
2023/03/12 09:31:54;;;;;;;3.40;2.72;;;;;;;1.99;41.23;93427.72;5010739;28;20033;-76
2023/03/12 09:34:19;;;;;;;5.55;3.05;;;;;;;2.01;40.74;93438.72;5011357;28;20383;-76
2023/03/12 09:36:45;;;;;;;3.13;2.80;;;;;;;2.02;41.63;93435.03;5009268;28;20136;-76
2023/03/12 09:39:12;;;;;;;4.15;2.67;;;;;;;2.07;41.36;93453.38;4992596;28;20029;-76
2023/03/12 09:41:40;;;;;;;3.50;2.70;;;;;;;2.34;41.22;93464.28;5010879;28;20095;-77
2023/03/12 09:44:41;;;;;;;5.25;2.92;;;;;;;2.47;40.23;93462.91;5008656;28;20695;-76
2023/03/12 09:47:14;;;;;;;4.38;3.00;;;;;;;2.38;40.60;93454.81;5012518;28;20052;-77
2023/03/12 09:49:43;;;;;;;3.67;2.83;;;;;;;2.27;40.75;93453.28;4991132;28;20037;-76
2023/03/12 09:52:27;;;;;;;4.50;2.95;;;;;;;2.59;40.79;93452.88;5010327;28;20038;-77
2023/03/12 09:55:06;;;;;;;3.25;2.47;;;;;;;2.79;39.75;93446.72;4997964;28;20042;-76
2023/03/12 09:57:32;;;;;;;7.40;4.60;;;;;;;2.67;39.98;93454.91;4998348;28;20034;-77
2023/03/12 09:59:58;;;;;;;3.38;3.10;;;;;;;2.49;40.29;93430.09;5009424;28;20087;-77
2023/03/12 10:02:35;;;;;;;3.53;2.97;;;;;;;2.78;40.78;93456.44;5009377;28;20031;-76
2023/03/12 10:05:23;;;;;;;10.75;7.05;;;;;;;2.85;40.50;93451.63;5010065;28;20147;-77
2023/03/12 10:07:59;;;;;;;2.88;2.50;;;;;;;2.98;40.19;93447.63;5008158;28;20446;-77
2023/03/12 10:10:44;;;;;;;3.67;2.97;;;;;;;2.92;39.48;93446.09;4989371;28;20046;-76
2023/03/12 10:13:12;;;;;;;7.90;4.95;;;;;;;3.09;39.51;93454.34;4998616;28;20103;-77
2023/03/12 10:15:54;;;;;;;5.47;4.38;;;;;;;2.86;39.19;93449.78;5007578;28;20038;-78
2023/03/12 10:18:59;;;;;;;7.20;4.78;;;;;;;3.16;39.71;93433.81;5010565;28;20365;-76
2023/03/12 10:21:28;;;;;;;6.10;5.18;;;;;;;3.18;40.35;93426.44;4996448;28;20053;-77
2023/03/12 10:24:12;;;;;;;3.08;2.78;;;;;;;3.17;40.38;93439.84;4995805;28;20103;-76
2023/03/12 10:26:42;;;;;;;5.63;3.53;;;;;;;3.16;39.51;93440.91;4996693;28;20037;-78
2023/03/12 10:29:23;;;;;;;4.22;3.83;;;;;;;3.04;39.42;93443.13;5008292;28;20041;-75
2023/03/12 10:31:54;;;;;;;2.72;2.53;;;;;;;2.90;39.67;93440.31;5007279;28;20091;-76
2023/03/12 10:34:28;;;;;;;4.70;2.65;;;;;;;3.02;39.48;93443.38;5007025;28;20576;-76
2023/03/12 10:36:59;;;;;;;3.53;2.67;;;;;;;3.14;39.96;93440.38;4996933;28;20180;-76
2023/03/12 10:39:25;;;;;;;2.95;2.42;;;;;;;3.34;39.18;93441.00;5008825;28;20041;-76
2023/03/12 10:41:51;;;;;;;3.20;2.90;;;;;;;3.10;39.34;93434.09;4996184;28;20554;-76
2023/03/12 10:44:21;;;;;;;6.20;4.97;;;;;;;3.15;38.38;93453.25;5010125;28;20483;-76
2023/03/12 10:47:05;;;;;;;7.00;4.25;;;;;;;3.24;38.77;93438.44;5008464;28;20041;-76
2023/03/12 10:49:34;;;;;;;5.70;4.88;;;;;;;3.38;38.93;93457.78;5007591;28;20033;-77
2023/03/12 10:52:17;;;;;;;5.32;2.88;;;;;;;3.05;38.73;93453.31;5008740;28;20036;-76
2023/03/12 10:54:46;;;;;;;2.85;2.47;;;;;;;3.25;38.80;93447.91;4998335;28;20525;-76
2023/03/12 10:57:16;;;;;;;4.53;4.00;;;;;;;3.41;38.79;93438.06;5006387;28;20041;-76
2023/03/12 10:59:45;;;;;;;4.82;3.70;;;;;;;3.44;39.06;93429.59;5007923;28;20040;-75
2023/03/12 11:02:32;;;;;;;3.47;2.80;;;;;;;3.35;38.65;93426.81;5011226;28;20513;-77
2023/03/12 11:04:59;;;;;;;3.70;3.13;;;;;;;3.28;39.23;93431.59;4994450;28;20640;-78
2023/03/12 11:07:34;;;;;;;3.22;2.92;;;;;;;3.56;39.97;93445.00;5008860;28;20037;-77
2023/03/12 11:10:13;;;;;;;2.28;2.08;;;;;;;3.85;38.32;93435.25;4991678;28;20030;-78
2023/03/12 11:12:39;;;;;;;6.43;4.95;;;;;;;3.80;38.60;93395.84;4996271;28;20452;-76
2023/03/12 11:15:38;;;;;;;5.85;4.28;;;;;;;4.15;37.84;93419.09;5007650;28;20037;-78
2023/03/12 11:18:20;;;;;;;4.30;3.90;;;;;;;4.13;37.86;93431.75;5007726;28;20125;-77
2023/03/12 11:20:55;;;;;;;3.95;2.75;;;;;;;4.13;38.44;93442.28;5006521;28;20493;-78
2023/03/12 11:23:28;;;;;;;6.20;4.32;;;;;;;3.97;37.34;93430.34;5005942;28;20550;-79
2023/03/12 11:26:02;;;;;;;13.02;8.23;;;;;;;3.93;38.28;93420.69;5009082;28;20347;-78
2023/03/12 11:28:36;;;;;;;5.75;4.05;;;;;;;4.17;37.71;93438.03;4995179;28;20041;-78
2023/03/12 11:31:04;;;;;;;3.88;3.33;;;;;;;4.23;37.12;93431.63;5009618;28;20030;-76
2023/03/12 11:33:29;;;;;;;3.20;2.90;;;;;;;4.33;37.28;93435.22;5005597;28;20666;-76
2023/03/12 11:36:14;;;;;;;3.65;3.35;;;;;;;4.35;36.76;93433.91;5012210;28;20104;-78
2023/03/12 11:39:07;;;;;;;3.35;3.05;;;;;;;4.32;36.62;93402.84;5007279;28;20127;-79
2023/03/12 11:41:40;;;;;;;7.07;5.50;;;;;;;4.51;36.91;93427.34;4962918;28;20061;-78
2023/03/12 11:44:15;;;;;;;3.85;3.38;;;;;;;4.51;36.88;93427.34;4990356;28;20068;-78